National Weather Service United States Department of Commerce

Moderating Temperatures for the East; Developing Storm for the Plains

Temperatures will continue to moderate across the east half of the nation through at least the first half of this week. A developing storm across the Southern Plains may bring some heavy rain from the Plains to the lower Great Lakes region, a wintry mixture and accumulating snow across the Midwest and Upper Mississippi Valley into mid-week. The west remains unsettled with occasional rain and snow. Read More >

MTJ - Montrose, CO - Terminal Aerodrome Forecast (TAF)

FTUS53 KMTJ 052342 RRA
KMTJ 052339Z 0600/0624 23015G30KT P6SM FEW250
     FM060200 15008KT P6SM FEW250
     FM060900 27007KT P6SM VCSH BKN030
     FM061600 30006KT P6SM VCSH BKN035
     FM062000 30010KT P6SM SCT080

For a printable version click KMTJ TAF